Time;durP1;ratioP1;P1;durP2;ratioP2;P2;SDS_P1;SDS_P2;PMS_P1;PMS_P2;Temp;Humidity;BMP_temperature;BMP_pressure;BME280_temperature;BME280_humidity;BME280_pressure;Samples;Min_cycle;Max_cycle;Signal;HPM_P1;HPM_P2
2022/04/18 00:01:01;;;;;;;4.20;1.38;;;;;;;;;;6261134;22;20525;-89
2022/04/18 00:03:27;;;;;;;1.77;1.40;;;;;;;;;;6236278;22;20011;-87
2022/04/18 00:05:53;;;;;;;2.22;1.67;;;;;;;;;;6260733;22;20524;-85
2022/04/18 00:08:19;;;;;;;2.30;1.05;;;;;;;;;;6260618;22;20038;-89
2022/04/18 00:10:45;;;;;;;0.40;0.40;;;;;;;;;;6259218;22;20026;-87
2022/04/18 00:13:11;;;;;;;1.25;0.88;;;;;;;;;;6258658;22;20326;-89
2022/04/18 00:15:37;;;;;;;1.42;0.95;;;;;;;;;;6258010;22;20026;-88
2022/04/18 00:18:03;;;;;;;1.95;1.33;;;;;;;;;;6259171;22;20571;-88
2022/04/18 00:20:29;;;;;;;2.00;1.65;;;;;;;;;;6259187;22;20011;-89
2022/04/18 00:22:55;;;;;;;8.45;7.68;;;;;;;;;;6285318;22;20349;-89
2022/04/18 00:25:21;;;;;;;2.05;1.25;;;;;;;;;;6259487;22;20015;-89
2022/04/18 00:27:49;;;;;;;1.40;1.00;;;;;;;;;;6259749;22;20011;-89
2022/04/18 00:30:15;;;;;;;2.60;1.45;;;;;;;;;;6259220;22;20015;-88
2022/04/18 00:32:41;;;;;;;0.85;0.68;;;;;;;;;;6258733;22;20098;-88
2022/04/18 00:35:07;;;;;;;0.30;0.30;;;;;;;;;;6285116;22;20075;-89
2022/04/18 00:37:33;;;;;;;0.50;0.40;;;;;;;;;;6258944;22;20034;-88
2022/04/18 00:39:59;;;;;;;0.70;0.70;;;;;;;;;;6259416;22;20490;-88
2022/04/18 00:42:25;;;;;;;0.55;0.55;;;;;;;;;;6259686;22;20015;-88
2022/04/18 00:44:53;;;;;;;2.05;1.75;;;;;;;;;;6259421;22;20072;-88
2022/04/18 00:47:19;;;;;;;1.73;1.63;;;;;;;;;;6259106;22;20015;-89
2022/04/18 00:49:44;;;;;;;2.28;1.20;;;;;;;;;;6258466;22;20011;-89
2022/04/18 00:52:10;;;;;;;0.98;0.77;;;;;;;;;;6259386;22;20047;-88
2022/04/18 00:54:37;;;;;;;2.80;2.55;;;;;;;;;;6259022;22;20017;-88
2022/04/18 00:57:03;;;;;;;2.92;1.95;;;;;;;;;;6258250;22;20015;-88
2022/04/18 00:59:32;;;;;;;0.55;0.55;;;;;;;;;;6284696;22;20020;-89
2022/04/18 01:01:58;;;;;;;0.77;0.77;;;;;;;;;;6258957;22;20007;-88
2022/04/18 01:04:24;;;;;;;2.50;1.75;;;;;;;;;;6284527;22;20015;-88
2022/04/18 01:06:50;;;;;;;1.88;1.60;;;;;;;;;;6258937;22;20329;-89
2022/04/18 01:09:16;;;;;;;1.10;1.00;;;;;;;;;;6259278;22;20050;-86
2022/04/18 01:11:42;;;;;;;1.05;0.73;;;;;;;;;;6259220;22;20079;-88
2022/04/18 01:14:08;;;;;;;0.35;0.35;;;;;;;;;;6259566;22;20080;-88
2022/04/18 01:16:34;;;;;;;0.45;0.45;;;;;;;;;;6258746;22;20022;-89
2022/04/18 01:19:00;;;;;;;0.40;0.40;;;;;;;;;;6259754;22;20018;-88
2022/04/18 01:21:26;;;;;;;4.40;2.92;;;;;;;;;;6259975;22;20098;-88
2022/04/18 01:23:55;;;;;;;0.22;0.22;;;;;;;;;;6259841;22;20398;-89
2022/04/18 01:29:08;;;;;;;1.17;0.90;;;;;;;;;;6285362;22;20023;-89
2022/04/18 01:31:35;;;;;;;8.95;2.92;;;;;;;;;;6233372;22;20007;-88
2022/04/18 01:34:02;;;;;;;0.32;0.32;;;;;;;;;;6257991;22;20348;-88
2022/04/18 01:36:28;;;;;;;1.45;1.23;;;;;;;;;;6257519;22;20098;-87
2022/04/18 01:38:55;;;;;;;0.63;0.63;;;;;;;;;;6283158;22;20015;-88
2022/04/18 01:41:21;;;;;;;0.30;0.30;;;;;;;;;;6257925;22;20040;-87
2022/04/18 01:44:06;;;;;;;0.70;0.70;;;;;;;;;;6257641;22;20344;-88
2022/04/18 01:46:32;;;;;;;3.90;1.73;;;;;;;;;;6259063;22;20382;-88
2022/04/18 01:48:58;;;;;;;0.30;0.30;;;;;;;;;;6260111;22;20042;-89
2022/04/18 01:51:24;;;;;;;9.38;4.30;;;;;;;;;;6260054;22;20075;-88
2022/04/18 01:53:50;;;;;;;1.33;1.23;;;;;;;;;;6260174;22;20015;-88
2022/04/18 01:56:16;;;;;;;2.60;1.95;;;;;;;;;;6260413;22;20011;-89
2022/04/18 01:58:42;;;;;;;0.40;0.40;;;;;;;;;;6262476;22;20025;-89
2022/04/18 02:01:08;;;;;;;0.73;0.73;;;;;;;;;;6262273;22;20015;-89
2022/04/18 02:03:34;;;;;;;1.92;1.60;;;;;;;;;;6262197;22;20015;-89
2022/04/18 02:06:00;;;;;;;0.43;0.43;;;;;;;;;;6261622;22;20018;-90
2022/04/18 02:08:26;;;;;;;0.47;0.47;;;;;;;;;;6262267;22;20015;-89
2022/04/18 02:10:52;;;;;;;0.50;0.50;;;;;;;;;;6261662;22;20026;-89
2022/04/18 02:13:19;;;;;;;4.38;4.07;;;;;;;;;;6261751;22;20016;-88
2022/04/18 02:15:45;;;;;;;2.63;2.17;;;;;;;;;;6261255;22;20011;-89
2022/04/18 02:18:11;;;;;;;1.67;1.55;;;;;;;;;;6261878;22;20022;-88
2022/04/18 02:20:37;;;;;;;2.08;1.75;;;;;;;;;;6261804;22;20031;-88
2022/04/18 02:23:03;;;;;;;1.50;1.40;;;;;;;;;;6261520;22;20015;-88
2022/04/18 02:25:29;;;;;;;3.10;2.20;;;;;;;;;;6261456;22;20448;-89
2022/04/18 02:27:55;;;;;;;1.65;1.13;;;;;;;;;;6262217;22;20013;-88
2022/04/18 02:30:21;;;;;;;0.38;0.38;;;;;;;;;;6260716;22;20019;-88
2022/04/18 02:32:47;;;;;;;0.50;0.50;;;;;;;;;;6260841;22;20614;-88
2022/04/18 02:35:14;;;;;;;2.03;1.88;;;;;;;;;;6260921;22;20020;-88
2022/04/18 02:37:40;;;;;;;1.38;1.10;;;;;;;;;;6260824;22;20015;-88
2022/04/18 02:40:07;;;;;;;3.05;2.67;;;;;;;;;;6260635;22;20025;-88
2022/04/18 02:42:33;;;;;;;4.85;2.85;;;;;;;;;;6260805;22;20007;-87
2022/04/18 02:44:59;;;;;;;0.70;0.70;;;;;;;;;;6260291;22;20019;-86
2022/04/18 02:47:25;;;;;;;0.40;0.40;;;;;;;;;;6260445;22;20022;-88
2022/04/18 02:49:51;;;;;;;0.57;0.57;;;;;;;;;;6286636;22;20038;-88
2022/04/18 02:52:19;;;;;;;3.08;2.13;;;;;;;;;;6260415;22;20015;-88
2022/04/18 02:54:45;;;;;;;0.90;0.82;;;;;;;;;;6260915;22;20016;-88
2022/04/18 02:57:12;;;;;;;5.00;4.68;;;;;;;;;;6234651;22;20046;-88
2022/04/18 02:59:38;;;;;;;3.05;1.20;;;;;;;;;;6259853;22;20042;-88
2022/04/18 03:02:04;;;;;;;2.85;2.60;;;;;;;;;;6285727;22;20011;-87
2022/04/18 03:04:30;;;;;;;1.30;1.15;;;;;;;;;;6260419;22;20011;-88
2022/04/18 03:06:56;;;;;;;1.35;1.10;;;;;;;;;;6260317;22;20061;-88
2022/04/18 03:09:22;;;;;;;1.92;1.80;;;;;;;;;;6260204;22;20015;-88
2022/04/18 03:11:48;;;;;;;2.95;2.17;;;;;;;;;;6261258;22;20076;-88
2022/04/18 03:14:14;;;;;;;1.30;1.20;;;;;;;;;;6261507;22;20011;-88
2022/04/18 03:16:40;;;;;;;2.25;2.05;;;;;;;;;;6261151;22;20027;-88
2022/04/18 03:19:06;;;;;;;7.72;4.88;;;;;;;;;;6286189;22;20022;-88
2022/04/18 03:21:32;;;;;;;2.20;2.00;;;;;;;;;;6261088;22;20015;-88
2022/04/18 03:23:58;;;;;;;1.08;0.80;;;;;;;;;;6260728;22;20007;-88
2022/04/18 03:26:24;;;;;;;1.77;1.67;;;;;;;;;;6260759;22;20104;-88
2022/04/18 03:28:50;;;;;;;0.55;0.50;;;;;;;;;;6260360;22;20526;-88
2022/04/18 03:31:16;;;;;;;1.95;1.77;;;;;;;;;;6286807;22;20019;-88
2022/04/18 03:33:42;;;;;;;1.27;1.17;;;;;;;;;;6261193;22;20038;-87
2022/04/18 03:41:38;;;;;;;1.23;1.13;;;;;;;;;;6286090;22;20022;-88
2022/04/18 03:44:04;;;;;;;4.80;2.22;;;;;;;;;;6260084;22;20367;-88
2022/04/18 03:46:31;;;;;;;2.65;1.67;;;;;;;;;;6260330;22;20015;-88
2022/04/18 03:48:58;;;;;;;3.05;2.70;;;;;;;;;;6286054;22;20054;-88
2022/04/18 03:51:24;;;;;;;20.15;2.75;;;;;;;;;;6260689;22;20022;-89
2022/04/18 03:53:50;;;;;;;1.40;1.30;;;;;;;;;;6261156;22;20054;-89
2022/04/18 03:56:15;;;;;;;1.08;0.98;;;;;;;;;;6261023;22;20069;-89
2022/04/18 03:58:42;;;;;;;2.20;1.85;;;;;;;;;;6261293;22;20051;-89
2022/04/18 04:01:08;;;;;;;1.70;1.58;;;;;;;;;;6261086;22;20022;-89
2022/04/18 04:03:34;;;;;;;3.45;2.55;;;;;;;;;;6283958;22;20011;-89
2022/04/18 04:06:00;;;;;;;0.70;0.70;;;;;;;;;;6259450;22;20072;-88
2022/04/18 04:08:28;;;;;;;0.40;0.40;;;;;;;;;;6284654;22;20011;-88
2022/04/18 04:10:54;;;;;;;1.70;1.60;;;;;;;;;;6260183;22;20011;-88
2022/04/18 04:13:20;;;;;;;2.88;1.92;;;;;;;;;;6260485;22;20164;-88
2022/04/18 04:15:46;;;;;;;2.10;1.90;;;;;;;;;;6260743;22;20023;-88
2022/04/18 04:18:12;;;;;;;0.55;0.55;;;;;;;;;;6260083;22;20022;-89
2022/04/18 04:20:38;;;;;;;1.65;0.93;;;;;;;;;;6260469;22;20015;-89
2022/04/18 04:23:04;;;;;;;2.47;1.90;;;;;;;;;;6259949;22;20023;-88
2022/04/18 04:25:30;;;;;;;0.68;0.52;;;;;;;;;;6260533;22;20007;-88
2022/04/18 04:27:59;;;;;;;6.45;4.28;;;;;;;;;;6285809;22;20673;-88
2022/04/18 04:30:25;;;;;;;1.52;1.42;;;;;;;;;;6285429;22;20030;-88
2022/04/18 04:32:51;;;;;;;2.75;2.55;;;;;;;;;;6260324;22;20349;-86
2022/04/18 04:35:18;;;;;;;1.58;1.45;;;;;;;;;;6285946;22;20444;-87
2022/04/18 04:37:44;;;;;;;1.90;1.67;;;;;;;;;;6259479;22;20440;-88
2022/04/18 04:40:11;;;;;;;1.45;1.35;;;;;;;;;;6259665;22;20030;-88
2022/04/18 04:42:39;;;;;;;1.13;0.88;;;;;;;;;;6260084;22;20019;-89
2022/04/18 04:45:05;;;;;;;0.43;0.43;;;;;;;;;;6259955;22;20023;-89
2022/04/18 04:47:31;;;;;;;0.52;0.52;;;;;;;;;;6260161;22;20034;-89
2022/04/18 04:49:57;;;;;;;0.88;0.85;;;;;;;;;;6286682;22;20016;-88
2022/04/18 04:52:23;;;;;;;0.65;0.65;;;;;;;;;;6261113;22;20453;-88
2022/04/18 04:54:50;;;;;;;6.10;3.33;;;;;;;;;;6285439;22;20073;-87
2022/04/18 04:57:16;;;;;;;1.38;1.27;;;;;;;;;;6258660;22;20015;-87
2022/04/18 04:59:42;;;;;;;2.42;1.75;;;;;;;;;;6234470;22;20413;-87
2022/04/18 05:02:08;;;;;;;1.13;1.08;;;;;;;;;;6258950;22;20011;-88
2022/04/18 05:04:34;;;;;;;2.13;1.83;;;;;;;;;;6258934;22;20366;-87
2022/04/18 05:07:00;;;;;;;1.02;0.93;;;;;;;;;;6258375;22;20022;-88
2022/04/18 05:09:26;;;;;;;0.88;0.88;;;;;;;;;;6258541;22;20022;-88
2022/04/18 05:11:55;;;;;;;2.30;1.58;;;;;;;;;;6258558;22;20011;-88
2022/04/18 05:14:21;;;;;;;0.32;0.32;;;;;;;;;;6258331;22;20098;-88
2022/04/18 05:16:47;;;;;;;0.50;0.50;;;;;;;;;;6257367;22;20015;-88
2022/04/18 05:19:13;;;;;;;1.90;1.65;;;;;;;;;;6257998;22;20050;-86
2022/04/18 05:21:39;;;;;;;0.77;0.77;;;;;;;;;;6258033;22;20054;-88
2022/04/18 05:24:05;;;;;;;0.68;0.52;;;;;;;;;;6257933;22;20353;-87
2022/04/18 05:26:37;;;;;;;3.30;1.75;;;;;;;;;;6257271;22;20094;-88
2022/04/18 05:29:03;;;;;;;3.35;3.05;;;;;;;;;;6257778;22;20330;-88
2022/04/18 05:31:28;;;;;;;2.80;2.33;;;;;;;;;;6258085;22;20103;-88
2022/04/18 05:33:55;;;;;;;4.55;1.23;;;;;;;;;;6258164;22;20449;-88
2022/04/18 05:36:22;;;;;;;0.47;0.47;;;;;;;;;;6257034;22;20018;-88
2022/04/18 05:38:48;;;;;;;1.85;0.88;;;;;;;;;;6257563;22;20015;-88
2022/04/18 05:41:14;;;;;;;0.57;0.57;;;;;;;;;;6257550;22;20022;-88
2022/04/18 05:43:40;;;;;;;0.63;0.63;;;;;;;;;;6258190;22;20019;-87
2022/04/18 05:46:07;;;;;;;0.38;0.38;;;;;;;;;;6256501;22;20065;-88
2022/04/18 05:48:33;;;;;;;2.72;2.50;;;;;;;;;;6257346;22;20441;-87
2022/04/18 05:50:59;;;;;;;3.28;1.52;;;;;;;;;;6256986;22;20015;-87
2022/04/18 05:53:35;;;;;;;0.95;0.88;;;;;;;;;;6257185;22;20366;-86
2022/04/18 05:56:02;;;;;;;0.63;0.63;;;;;;;;;;6256694;22;20072;-88
2022/04/18 05:58:28;;;;;;;3.03;1.80;;;;;;;;;;6256375;22;20093;-86
2022/04/18 06:00:53;;;;;;;2.75;2.40;;;;;;;;;;6257839;22;20349;-88
2022/04/18 06:03:19;;;;;;;0.98;0.85;;;;;;;;;;6256694;22;20020;-87
2022/04/18 06:05:47;;;;;;;1.50;1.40;;;;;;;;;;6281515;22;20104;-87
2022/04/18 06:08:14;;;;;;;0.50;0.50;;;;;;;;;;6257111;22;20452;-88
2022/04/18 06:10:41;;;;;;;0.40;0.40;;;;;;;;;;6257566;22;20473;-87
2022/04/18 06:13:09;;;;;;;2.15;1.95;;;;;;;;;;6257241;22;20015;-88
2022/04/18 06:15:35;;;;;;;1.02;1.02;;;;;;;;;;6256557;22;20015;-88
2022/04/18 06:18:01;;;;;;;0.85;0.80;;;;;;;;;;6256960;22;20019;-88
2022/04/18 06:20:27;;;;;;;2.80;2.25;;;;;;;;;;6256555;22;20641;-87
2022/04/18 06:22:53;;;;;;;0.60;0.60;;;;;;;;;;6257181;22;20015;-88
2022/04/18 06:25:19;;;;;;;1.13;1.05;;;;;;;;;;6256956;22;20015;-87
2022/04/18 06:27:45;;;;;;;1.08;0.98;;;;;;;;;;6256938;22;20030;-87
2022/04/18 06:30:11;;;;;;;1.70;1.60;;;;;;;;;;6283057;22;20019;-88
2022/04/18 06:32:38;;;;;;;1.00;0.93;;;;;;;;;;6256298;22;20011;-87
2022/04/18 06:35:04;;;;;;;7.30;3.33;;;;;;;;;;6256544;22;20395;-87
2022/04/18 06:37:31;;;;;;;0.73;0.70;;;;;;;;;;6281737;22;20019;-87
2022/04/18 06:39:58;;;;;;;1.08;0.82;;;;;;;;;;6256150;22;20019;-87
2022/04/18 06:42:24;;;;;;;1.10;0.93;;;;;;;;;;6257614;22;20011;-87
2022/04/18 06:44:50;;;;;;;1.50;1.30;;;;;;;;;;6259890;22;20012;-87
2022/04/18 06:47:17;;;;;;;0.77;0.77;;;;;;;;;;6258109;22;20102;-88
2022/04/18 06:49:43;;;;;;;1.30;1.02;;;;;;;;;;6258599;22;20015;-86
2022/04/18 06:52:09;;;;;;;1.67;1.40;;;;;;;;;;6258346;22;20019;-87
2022/04/18 06:54:35;;;;;;;0.98;0.93;;;;;;;;;;6258052;22;20045;-86
2022/04/18 06:57:02;;;;;;;1.95;1.10;;;;;;;;;;6258164;22;20019;-86
2022/04/18 06:59:29;;;;;;;1.33;1.23;;;;;;;;;;6258069;22;20047;-87
2022/04/18 07:01:55;;;;;;;4.32;3.70;;;;;;;;;;6257601;22;20015;-87
2022/04/18 07:04:21;;;;;;;2.75;1.95;;;;;;;;;;6257923;22;20015;-87
2022/04/18 07:06:47;;;;;;;0.60;0.55;;;;;;;;;;6257806;22;20016;-88
2022/04/18 07:09:13;;;;;;;3.45;1.88;;;;;;;;;;6258001;22;20021;-87
2022/04/18 07:11:44;;;;;;;2.22;0.95;;;;;;;;;;6258988;22;20026;-87
2022/04/18 07:14:10;;;;;;;1.65;1.00;;;;;;;;;;6258974;22;20030;-88
2022/04/18 07:16:36;;;;;;;1.50;1.35;;;;;;;;;;6258463;22;20023;-87
2022/04/18 07:19:02;;;;;;;0.93;0.73;;;;;;;;;;6259396;22;20025;-87
2022/04/18 07:21:28;;;;;;;6.65;2.25;;;;;;;;;;6258852;22;20453;-87
2022/04/18 07:23:54;;;;;;;0.63;0.63;;;;;;;;;;6258864;22;20007;-87
2022/04/18 07:26:21;;;;;;;3.25;2.45;;;;;;;;;;6259333;22;20050;-88
2022/04/18 07:28:47;;;;;;;1.98;1.45;;;;;;;;;;6258982;22;20011;-87
2022/04/18 07:31:13;;;;;;;1.95;1.20;;;;;;;;;;6258373;22;20018;-87
2022/04/18 07:33:39;;;;;;;3.22;2.00;;;;;;;;;;6284037;22;20083;-88
2022/04/18 07:36:07;;;;;;;2.53;1.38;;;;;;;;;;6258042;22;20053;-88
2022/04/18 07:38:51;;;;;;;1.17;1.08;;;;;;;;;;6283758;22;20050;-88
2022/04/18 07:41:18;;;;;;;1.60;1.15;;;;;;;;;;6258038;22;20019;-88
2022/04/18 07:43:44;;;;;;;6.15;2.88;;;;;;;;;;6258125;22;20017;-87
2022/04/18 07:46:11;;;;;;;1.73;1.42;;;;;;;;;;6257214;22;20019;-88
2022/04/18 07:48:37;;;;;;;2.47;1.58;;;;;;;;;;6257640;22;20042;-87
2022/04/18 07:53:47;;;;;;;2.53;1.50;;;;;;;;;;6282199;22;20068;-87
2022/04/18 07:56:13;;;;;;;2.40;2.05;;;;;;;;;;6256653;22;20492;-88
2022/04/18 07:58:39;;;;;;;3.67;1.42;;;;;;;;;;6257782;22;20095;-87
2022/04/18 08:01:05;;;;;;;4.38;1.75;;;;;;;;;;6258112;22;20050;-88
2022/04/18 08:03:35;;;;;;;3.20;1.77;;;;;;;;;;6258090;22;20017;-88
2022/04/18 08:06:01;;;;;;;4.30;2.38;;;;;;;;;;6257434;22;20015;-88
2022/04/18 08:08:27;;;;;;;10.30;4.45;;;;;;;;;;6258131;22;20434;-87
2022/04/18 08:10:53;;;;;;;5.88;2.42;;;;;;;;;;6257484;22;20047;-88
2022/04/18 08:13:19;;;;;;;11.73;2.42;;;;;;;;;;6258017;22;20051;-88
2022/04/18 08:15:45;;;;;;;2.63;2.15;;;;;;;;;;6255636;22;20019;-87
2022/04/18 08:18:11;;;;;;;1.40;1.15;;;;;;;;;;6256148;22;20023;-87
2022/04/18 08:20:37;;;;;;;1.38;1.20;;;;;;;;;;6256136;22;20441;-86
2022/04/18 08:23:03;;;;;;;1.42;0.90;;;;;;;;;;6255861;22;20018;-86
2022/04/18 08:25:30;;;;;;;1.30;1.08;;;;;;;;;;6281316;22;20015;-87
2022/04/18 08:27:56;;;;;;;1.33;0.98;;;;;;;;;;6255985;22;20018;-86
2022/04/18 08:30:23;;;;;;;0.50;0.50;;;;;;;;;;6256008;22;20352;-87
2022/04/18 08:32:49;;;;;;;0.75;0.70;;;;;;;;;;6256036;22;20019;-86
2022/04/18 08:35:15;;;;;;;0.17;0.17;;;;;;;;;;6256029;22;20077;-87
2022/04/18 08:37:41;;;;;;;2.92;1.27;;;;;;;;;;6256747;22;20019;-87
2022/04/18 08:40:09;;;;;;;7.65;1.73;;;;;;;;;;6255939;22;20505;-87
2022/04/18 08:45:43;;;;;;;1.63;1.08;;;;;;;;;;6280806;22;20426;-84
2022/04/18 08:53:50;;;;;;;2.70;1.23;;;;;;;;;;6280838;22;20253;-87
2022/04/18 08:56:26;;;;;;;0.20;0.20;;;;;;;;;;6255017;22;20038;-87
2022/04/18 08:58:56;;;;;;;1.75;1.05;;;;;;;;;;6255556;22;20034;-87
2022/04/18 09:01:24;;;;;;;4.97;3.15;;;;;;;;;;6255584;22;20011;-86
2022/04/18 09:03:50;;;;;;;0.77;0.55;;;;;;;;;;6255958;22;20026;-85
2022/04/18 09:06:16;;;;;;;1.75;0.75;;;;;;;;;;6255266;22;20015;-87
2022/04/18 09:08:46;;;;;;;1.60;1.23;;;;;;;;;;6255671;22;20011;-87
2022/04/18 09:11:25;;;;;;;1.08;0.60;;;;;;;;;;6281194;22;20348;-88
2022/04/18 09:13:57;;;;;;;1.45;0.77;;;;;;;;;;6281540;22;20068;-87
2022/04/18 09:16:28;;;;;;;1.20;1.00;;;;;;;;;;6255372;22;20015;-87
2022/04/18 09:19:10;;;;;;;4.20;2.92;;;;;;;;;;6256053;22;20018;-87
2022/04/18 09:21:41;;;;;;;0.80;0.65;;;;;;;;;;6254798;22;20015;-87
2022/04/18 09:24:07;;;;;;;0.95;0.75;;;;;;;;;;6255732;22;20007;-87
2022/04/18 09:26:33;;;;;;;3.53;2.35;;;;;;;;;;6256075;22;20046;-88
2022/04/18 09:29:06;;;;;;;1.60;0.57;;;;;;;;;;6256107;22;20021;-86
2022/04/18 09:31:39;;;;;;;0.88;0.80;;;;;;;;;;6256071;22;20015;-87
2022/04/18 09:34:06;;;;;;;0.82;0.80;;;;;;;;;;6255623;22;20041;-87
2022/04/18 09:36:43;;;;;;;2.97;1.60;;;;;;;;;;6255517;22;20337;-88
2022/04/18 09:39:09;;;;;;;2.90;1.42;;;;;;;;;;6255048;22;20023;-87
2022/04/18 09:41:35;;;;;;;2.70;1.35;;;;;;;;;;6255703;22;20090;-87
2022/04/18 09:44:01;;;;;;;0.68;0.30;;;;;;;;;;6256031;22;20015;-88
2022/04/18 09:46:27;;;;;;;1.48;1.38;;;;;;;;;;6255431;22;20100;-88
2022/04/18 09:49:00;;;;;;;0.38;0.38;;;;;;;;;;6256269;22;20015;-86
2022/04/18 09:51:28;;;;;;;0.30;0.30;;;;;;;;;;6255812;22;20015;-86
2022/04/18 09:53:57;;;;;;;1.73;0.98;;;;;;;;;;6255913;22;20065;-87
2022/04/18 09:56:23;;;;;;;0.70;0.70;;;;;;;;;;6255116;22;20022;-87
2022/04/18 09:58:49;;;;;;;1.35;0.85;;;;;;;;;;6255881;22;20020;-84
2022/04/18 10:01:19;;;;;;;4.20;0.93;;;;;;;;;;6254143;22;20457;-82
2022/04/18 10:03:46;;;;;;;0.80;0.75;;;;;;;;;;6280418;22;20058;-87
2022/04/18 10:06:12;;;;;;;0.30;0.30;;;;;;;;;;6255924;22;20038;-87
2022/04/18 10:08:39;;;;;;;1.15;0.55;;;;;;;;;;6256064;22;20474;-87
2022/04/18 10:11:12;;;;;;;5.88;1.80;;;;;;;;;;6254030;22;20019;-87
2022/04/18 10:13:41;;;;;;;0.30;0.30;;;;;;;;;;6256407;22;20011;-87
2022/04/18 10:16:07;;;;;;;0.45;0.30;;;;;;;;;;6255763;22;20016;-88
2022/04/18 10:18:47;;;;;;;0.30;0.30;;;;;;;;;;6258465;22;20067;-87
2022/04/18 10:21:36;;;;;;;0.60;0.45;;;;;;;;;;6259190;22;20020;-87
2022/04/18 10:24:21;;;;;;;0.60;0.60;;;;;;;;;;6259407;22;20019;-87
2022/04/18 10:27:12;;;;;;;1.13;1.00;;;;;;;;;;6261074;22;20025;-89
2022/04/18 10:29:41;;;;;;;0.90;0.85;;;;;;;;;;6262251;22;20015;-88
2022/04/18 10:32:08;;;;;;;1.52;0.93;;;;;;;;;;6259865;22;20015;-88
2022/04/18 10:34:35;;;;;;;1.60;0.75;;;;;;;;;;6260714;22;20022;-88
2022/04/18 10:37:02;;;;;;;0.20;0.20;;;;;;;;;;6254585;22;20015;-81
2022/04/18 10:39:35;;;;;;;2.55;2.20;;;;;;;;;;6255530;22;20019;-83
2022/04/18 10:42:21;;;;;;;1.42;1.05;;;;;;;;;;6255611;22;20034;-84
2022/04/18 10:45:01;;;;;;;0.10;0.10;;;;;;;;;;6255820;22;20054;-81
2022/04/18 10:47:27;;;;;;;1.42;0.77;;;;;;;;;;6255323;22;20011;-82
2022/04/18 10:50:12;;;;;;;0.40;0.22;;;;;;;;;;6281029;22;20019;-83
2022/04/18 10:52:38;;;;;;;0.60;0.50;;;;;;;;;;6255543;22;20413;-82
2022/04/18 10:55:04;;;;;;;0.20;0.20;;;;;;;;;;6254997;22;20357;-82
2022/04/18 10:57:30;;;;;;;0.85;0.85;;;;;;;;;;6279999;22;20023;-81
2022/04/18 10:59:57;;;;;;;0.50;0.43;;;;;;;;;;6255308;22;20467;-82
2022/04/18 11:02:52;;;;;;;0.20;0.20;;;;;;;;;;6254816;22;20076;-82
2022/04/18 11:05:33;;;;;;;0.82;0.38;;;;;;;;;;6255148;22;20090;-82
2022/04/18 11:08:11;;;;;;;0.25;0.25;;;;;;;;;;6254717;22;20011;-82
2022/04/18 11:10:38;;;;;;;2.38;2.17;;;;;;;;;;6255169;22;20038;-82
2022/04/18 11:13:06;;;;;;;0.32;0.20;;;;;;;;;;6254636;22;20015;-82
2022/04/18 11:15:32;;;;;;;0.30;0.30;;;;;;;;;;6254282;22;20016;-82
2022/04/18 11:18:01;;;;;;;0.60;0.60;;;;;;;;;;6254495;22;20106;-82
2022/04/18 11:20:33;;;;;;;2.78;0.82;;;;;;;;;;6254379;22;20102;-82
2022/04/18 11:23:18;;;;;;;0.68;0.50;;;;;;;;;;6254340;22;20042;-82
2022/04/18 11:25:56;;;;;;;0.47;0.47;;;;;;;;;;6253535;22;20018;-82
2022/04/18 11:28:23;;;;;;;0.00;0.00;;;;;;;;;;6254119;22;20019;-82
2022/04/18 11:30:49;;;;;;;0.15;0.15;;;;;;;;;;6254763;22;20019;-82
2022/04/18 11:33:15;;;;;;;0.77;0.77;;;;;;;;;;6255324;22;20027;-81
2022/04/18 11:35:42;;;;;;;1.63;0.75;;;;;;;;;;6279898;22;20019;-81
2022/04/18 11:38:09;;;;;;;0.55;0.47;;;;;;;;;;6280198;22;20021;-82
2022/04/18 11:40:39;;;;;;;0.20;0.20;;;;;;;;;;6280117;22;20012;-82
2022/04/18 11:43:11;;;;;;;1.60;0.47;;;;;;;;;;6280293;22;20489;-82
2022/04/18 11:45:37;;;;;;;0.30;0.28;;;;;;;;;;6279803;22;20090;-81
2022/04/18 11:48:04;;;;;;;0.30;0.30;;;;;;;;;;6254726;22;20015;-81
2022/04/18 11:50:32;;;;;;;0.50;0.50;;;;;;;;;;6280302;22;20023;-82
2022/04/18 11:53:06;;;;;;;0.73;0.60;;;;;;;;;;6254727;22;20015;-82
2022/04/18 11:55:32;;;;;;;0.95;0.65;;;;;;;;;;6279402;22;20015;-82
2022/04/18 11:57:58;;;;;;;0.45;0.30;;;;;;;;;;6280385;22;20457;-82
2022/04/18 12:08:45;;;;;;;1.02;0.45;;;;;;;;;;6279848;22;20031;-81
2022/04/18 12:11:11;;;;;;;0.45;0.40;;;;;;;;;;6254245;22;20072;-81
2022/04/18 12:13:41;;;;;;;0.75;0.20;;;;;;;;;;6254690;22;20072;-81
2022/04/18 12:16:07;;;;;;;0.30;0.30;;;;;;;;;;6254197;22;20106;-81
2022/04/18 12:18:34;;;;;;;0.28;0.28;;;;;;;;;;6254515;22;20038;-81
2022/04/18 12:21:00;;;;;;;0.40;0.40;;;;;;;;;;6254242;22;20072;-81
2022/04/18 12:23:26;;;;;;;0.10;0.10;;;;;;;;;;6255055;22;20069;-81
2022/04/18 12:25:59;;;;;;;0.32;0.30;;;;;;;;;;6228859;22;20345;-82
2022/04/18 12:28:29;;;;;;;0.40;0.30;;;;;;;;;;6254878;22;20018;-81
2022/04/18 12:30:57;;;;;;;0.65;0.52;;;;;;;;;;6254463;22;20322;-81
2022/04/18 12:33:24;;;;;;;2.75;0.32;;;;;;;;;;6254264;22;20368;-80
2022/04/18 12:35:51;;;;;;;0.10;0.10;;;;;;;;;;6253383;22;20026;-81
2022/04/18 12:38:18;;;;;;;0.10;0.10;;;;;;;;;;6280232;22;20054;-81
2022/04/18 12:40:45;;;;;;;1.67;0.55;;;;;;;;;;6254123;22;20012;-82
2022/04/18 12:43:13;;;;;;;0.10;0.10;;;;;;;;;;6253988;22;20534;-82
2022/04/18 12:45:42;;;;;;;0.20;0.20;;;;;;;;;;6253923;22;20349;-81
2022/04/18 12:48:08;;;;;;;0.52;0.43;;;;;;;;;;6279699;22;20390;-81
2022/04/18 12:50:35;;;;;;;0.90;0.50;;;;;;;;;;6254451;22;20500;-81
2022/04/18 12:53:01;;;;;;;0.20;0.20;;;;;;;;;;6254420;22;20077;-81
2022/04/18 12:55:30;;;;;;;1.00;0.90;;;;;;;;;;6253952;22;20054;-81
2022/04/18 12:58:00;;;;;;;0.20;0.20;;;;;;;;;;6280050;22;20026;-81
2022/04/18 13:00:34;;;;;;;0.73;0.60;;;18.00;80.30;;;;;;6254668;22;20023;-82
2022/04/18 13:03:03;;;;;;;0.08;0.08;;;20.50;61.20;;;;;;6279793;22;20457;-82
2022/04/18 13:05:30;;;;;;;0.00;0.00;;;20.30;62.60;;;;;;6279404;22;20022;-82
2022/04/18 13:08:04;;;;;;;0.98;0.45;;;20.30;67.20;;;;;;6279967;22;20445;-82
2022/04/18 13:10:32;;;;;;;0.10;0.05;;;20.50;69.10;;;;;;6254660;22;20019;-83
2022/04/18 13:13:04;;;;;;;0.08;0.08;;;;;;;;;;6254206;22;20022;-82
2022/04/18 13:15:30;;;;;;;0.00;0.00;;;;;;;;;;6253926;22;20472;-82
2022/04/18 13:17:57;;;;;;;0.13;0.13;;;;;;;;;;6254071;22;20023;-82
2022/04/18 13:20:32;;;;;;;0.93;0.52;;;;;;;;;;6279664;22;20019;-82
2022/04/18 13:22:58;;;;;;;1.33;0.75;;;;;;;;;;6253985;22;20018;-82
2022/04/18 13:25:24;;;;;;;0.43;0.20;;;;;;;;;;6253425;22;20468;-82
2022/04/18 13:27:52;;;;;;;0.28;0.28;;;;;;;;;;6279645;22;20205;-82
2022/04/18 13:30:18;;;;;;;0.75;0.75;;;;;;;;;;6254375;22;20015;-82
2022/04/18 13:32:44;;;;;;;0.65;0.40;;;;;;;;;;6279833;22;20351;-82
2022/04/18 13:35:10;;;;;;;0.45;0.45;;;;;;;;;;6279506;22;20011;-82
2022/04/18 13:37:36;;;;;;;3.47;1.27;;;;;;;;;;6279004;22;20007;-82
2022/04/18 13:40:02;;;;;;;0.93;0.55;;;;;;;;;;6279440;22;20015;-81
2022/04/18 13:42:28;;;;;;;0.35;0.30;;;;;;;;;;6279633;22;20090;-82
2022/04/18 13:44:54;;;;;;;0.95;0.60;;;;;;;;;;6279433;22;20053;-80
2022/04/18 13:47:21;;;;;;;0.30;0.28;;;;;;;;;;6253879;22;20019;-81
2022/04/18 13:49:47;;;;;;;0.13;0.13;;;;;;;;;;6279383;22;20019;-80
2022/04/18 13:52:13;;;;;;;0.30;0.30;;;;;;;;;;6254540;22;20026;-81
2022/04/18 13:54:40;;;;;;;0.10;0.10;;;;;;;;;;6255648;22;20353;-82
2022/04/18 13:57:06;;;;;;;0.10;0.10;;;;;;;;;;6255055;22;20022;-82
2022/04/18 13:59:32;;;;;;;0.03;0.03;;;;;;;;;;6255710;22;20015;-82
2022/04/18 14:02:00;;;;;;;0.20;0.20;;;;;;;;;;6255782;22;20011;-83
2022/04/18 14:04:26;;;;;;;0.08;0.08;;;;;;;;;;6281653;22;20019;-82
2022/04/18 14:06:52;;;;;;;0.10;0.10;;;;;;;;;;6280805;22;20015;-82
2022/04/18 14:09:19;;;;;;;0.05;0.05;;;;;;;;;;6256085;22;20328;-81
2022/04/18 14:11:45;;;;;;;0.80;0.38;;;;;;;;;;6255860;22;20395;-82
2022/04/18 14:20:20;;;;;;;0.10;0.10;;;;;;;;;;6255694;22;20023;-82
2022/04/18 14:20:44;;;;;;;0.30;0.20;;;;;;;;;;6158692;23;20030;-81
2022/04/18 14:22:51;;;;;;;0.20;0.20;;;;;;;;;;6151162;23;20112;-82
2022/04/18 14:25:18;;;;;;;0.85;0.30;;;;;;;;;;6236244;22;20015;-82
2022/04/18 14:27:44;;;;;;;0.30;0.30;;;;;;;;;;6255376;22;20069;-81
2022/04/18 14:30:13;;;;;;;0.00;0.00;;;;;;;;;;6281094;22;20542;-81
2022/04/18 14:32:39;;;;;;;0.80;0.75;;;;;;;;;;6281426;22;20019;-81
2022/04/18 14:35:05;;;;;;;0.10;0.10;;;;;;;;;;6255819;22;20015;-80
2022/04/18 14:37:31;;;;;;;8.30;1.85;;;;;;;;;;6280719;22;20360;-82
2022/04/18 14:39:57;;;;;;;0.40;0.40;;;;;;;;;;6255575;22;20061;-82
2022/04/18 14:42:24;;;;;;;0.43;0.43;;;;;;;;;;6255483;22;20562;-83
2022/04/18 14:44:53;;;;;;;0.43;0.43;;;;;;;;;;6255432;22;20488;-82
2022/04/18 14:47:20;;;;;;;0.77;0.70;;;;;;;;;;6255204;22;20015;-82
2022/04/18 14:49:46;;;;;;;0.00;0.00;;;;;;;;;;6281229;22;20094;-82
2022/04/18 14:52:12;;;;;;;0.43;0.32;;;;;;;;;;6281022;22;20015;-83
2022/04/18 14:54:38;;;;;;;0.20;0.20;;;;;;;;;;6255988;22;20026;-82
2022/04/18 14:57:05;;;;;;;1.08;0.98;;;;;;;;;;6280850;22;20019;-83
2022/04/18 14:59:31;;;;;;;0.68;0.68;;;;;;;;;;6280715;22;20023;-81
2022/04/18 15:01:58;;;;;;;0.10;0.10;;;;;;;;;;6254890;22;20125;-80
2022/04/18 15:04:24;;;;;;;0.25;0.25;;;;;;;;;;6255341;22;20015;-82
2022/04/18 15:06:50;;;;;;;0.70;0.70;;;;;;;;;;6255214;22;20011;-81
2022/04/18 15:09:18;;;;;;;0.10;0.10;;;;;;;;;;6255531;22;20149;-81
2022/04/18 15:11:46;;;;;;;0.10;0.10;;;;;;;;;;6254904;22;20353;-82
2022/04/18 15:14:12;;;;;;;0.60;0.52;;;;;;;;;;6255188;22;20019;-81